Pagrindinis puslapis
METAR-TAF:

METAR-TAF

Oro uostai :

Teller, Aliaska, Jungtinės Amerikos Valstijos

platuma: 65-14-25N, ilguma: 166-20-22W, Aukštis: 90 m

Dabartinis oras

Ataskaita buvo paskelbta 15 minutes, ne 19:56 UTC
Vėjas 14 kt iš Rytų
Temperatūra -17°C
Drėgmė 84%
Slėgis 1006 hPa
Matomumas: 14.5 km
Apsiniaukę ne aukštis 3500 ft
sniegas

METAR: PATE 161956Z AUTO 10014KT 9SM -SN OVC035 M17/M19 A2972 RMK AO2 SLP077 P0000 T11671189 FZRANO

Laikas: 11:11 (20:11 UTC)


TAF: trūkstamas

Orai ataskaitas ir orų prognozės (METAR, TAF).

turimą stotys yra geltonos ir raudonos taškus žemėlapyje.

Perkelti pele per norėdami pamatyti stoties vardą.

Tada spustelėkite, norėdami matyti oro stebėjimo ir prognozės.

Norėdami pakeisti žemėlapį: spustelėkite ant žalios mygtukų su juodo kryžiaus žemyn,; žalią mygtuką su brūkšneliu, jei norite nutolinti; arba žalių rodyklių gretimoms žemėlapius.


METAR-TAF: